Time;durP1;ratioP1;P1;durP2;ratioP2;P2;SDS_P1;SDS_P2;PMS_P1;PMS_P2;Temp;Humidity;BMP_temperature;BMP_pressure;BME280_temperature;BME280_humidity;BME280_pressure;Samples;Min_cycle;Max_cycle;Signal;HPM_P1;HPM_P2
2023/09/28 00:02:23;;;;;;;1.47;0.90;;;19.80;98.20;;;;;;4971145;28;20494;-81
2023/09/28 00:04:53;;;;;;;1.50;0.90;;;19.80;98.20;;;;;;4968147;28;20489;-81
2023/09/28 00:07:28;;;;;;;1.43;0.90;;;19.80;98.20;;;;;;4972754;28;20497;-82
2023/09/28 00:09:53;;;;;;;1.60;1.27;;;19.80;98.20;;;;;;4974842;28;20463;-82
2023/09/28 00:12:21;;;;;;;1.60;1.37;;;19.80;98.20;;;;;;4975429;28;20583;-82
2023/09/28 00:14:47;;;;;;;1.47;0.90;;;19.80;98.20;;;;;;4975381;28;20286;-82
2023/09/28 00:17:16;;;;;;;1.47;0.90;;;19.80;98.20;;;;;;4970390;28;20485;-82
2023/09/28 00:19:58;;;;;;;1.43;0.90;;;19.80;98.20;;;;;;4974169;28;20528;-82
2023/09/28 00:22:41;;;;;;;1.50;1.00;;;19.80;98.20;;;;;;4970742;28;20575;-82
2023/09/28 00:25:12;;;;;;;1.50;0.90;;;19.80;98.20;;;;;;4971153;28;20457;-82
2023/09/28 00:27:40;;;;;;;1.47;0.90;;;19.80;98.20;;;;;;4974436;28;20512;-81
2023/09/28 00:30:21;;;;;;;1.60;1.23;;;19.80;98.20;;;;;;4972101;28;20922;-82
2023/09/28 00:32:56;;;;;;;1.47;0.90;;;19.80;98.20;;;;;;4974190;28;20552;-84
2023/09/28 00:35:32;;;;;;;1.47;0.90;;;19.80;98.20;;;;;;4966468;28;20468;-84
2023/09/28 00:38:07;;;;;;;1.50;0.90;;;19.80;98.20;;;;;;4976453;28;20508;-85
2023/09/28 00:40:33;;;;;;;1.47;0.90;;;19.80;98.20;;;;;;4968795;28;20984;-84
2023/09/28 00:43:01;;;;;;;1.47;0.90;;;19.80;98.20;;;;;;4978731;28;20757;-85
2023/09/28 00:45:28;;;;;;;1.50;0.90;;;19.70;98.20;;;;;;4971544;28;20438;-84
2023/09/28 00:47:57;;;;;;;1.50;0.90;;;19.70;98.20;;;;;;4977181;28;20563;-84
2023/09/28 00:50:27;;;;;;;1.47;0.90;;;19.70;98.20;;;;;;4972920;28;20609;-84
2023/09/28 00:52:58;;;;;;;1.47;0.90;;;19.70;98.20;;;;;;4977455;28;20930;-83
2023/09/28 00:55:28;;;;;;;1.47;0.90;;;19.70;98.20;;;;;;4971780;28;21056;-84
2023/09/28 00:57:57;;;;;;;1.50;0.97;;;19.70;98.20;;;;;;4977905;28;20481;-84
2023/09/28 01:00:26;;;;;;;1.47;0.90;;;19.70;98.20;;;;;;4970765;28;20473;-84
2023/09/28 01:03:00;;;;;;;1.43;0.90;;;19.70;98.20;;;;;;4975765;28;20976;-82
2023/09/28 01:05:31;;;;;;;1.47;0.90;;;19.80;98.20;;;;;;4966850;28;20469;-81
2023/09/28 01:08:07;;;;;;;1.50;0.90;;;19.70;98.20;;;;;;4976026;28;20524;-81
2023/09/28 01:13:27;;;;;;;1.50;0.90;;;19.70;98.20;;;;;;4955429;28;20568;-81
2023/09/28 01:15:56;;;;;;;1.50;0.90;;;19.70;98.20;;;;;;4960854;28;20524;-81
2023/09/28 01:21:13;;;;;;;1.47;0.90;;;19.60;98.20;;;;;;4965253;28;20496;-82
2023/09/28 01:23:41;;;;;;;1.50;0.90;;;19.60;98.20;;;;;;4982479;28;20632;-84
2023/09/28 01:26:08;;;;;;;1.60;1.33;;;19.60;98.20;;;;;;4966123;28;20574;-83
2023/09/28 01:28:34;;;;;;;1.47;0.90;;;19.60;98.20;;;;;;4985361;28;20525;-83
2023/09/28 01:31:02;;;;;;;1.43;0.90;;;19.50;98.20;;;;;;4965669;28;20560;-84
2023/09/28 01:33:31;;;;;;;1.50;0.90;;;19.50;98.20;;;;;;4983705;28;21061;-83
2023/09/28 01:36:11;;;;;;;1.50;0.90;;;19.50;98.20;;;;;;4972617;28;20489;-83
2023/09/28 01:38:57;;;;;;;1.40;0.90;;;19.50;98.20;;;;;;4989413;28;20461;-84
2023/09/28 01:41:30;;;;;;;1.47;0.90;;;19.50;98.20;;;;;;4964641;28;20473;-84
2023/09/28 01:44:00;;;;;;;1.50;0.90;;;19.50;98.20;;;;;;4979211;28;21027;-84
2023/09/28 01:46:29;;;;;;;1.50;0.90;;;19.50;98.20;;;;;;4967012;28;20892;-83
2023/09/28 01:48:56;;;;;;;1.47;0.90;;;19.50;98.20;;;;;;4980659;28;20540;-84
2023/09/28 01:51:26;;;;;;;1.47;0.90;;;19.50;98.20;;;;;;4963371;28;20477;-84
2023/09/28 01:53:53;;;;;;;1.43;0.90;;;19.50;98.20;;;;;;4980179;28;20541;-83
2023/09/28 01:56:28;;;;;;;1.50;0.90;;;19.50;98.20;;;;;;4968265;28;20496;-83
2023/09/28 01:58:54;;;;;;;1.40;0.90;;;19.50;98.20;;;;;;4984196;28;20528;-83
2023/09/28 02:01:24;;;;;;;1.50;1.30;;;19.50;98.20;;;;;;4966389;28;20473;-83
2023/09/28 02:03:51;;;;;;;1.50;0.90;;;19.50;98.20;;;;;;4978453;28;20585;-84
2023/09/28 02:06:21;;;;;;;1.50;0.90;;;19.50;98.20;;;;;;4965188;28;20492;-83
2023/09/28 02:08:47;;;;;;;4.57;3.10;;;19.50;98.20;;;;;;4978952;28;20681;-84
2023/09/28 02:11:16;;;;;;;1.50;0.90;;;19.50;98.20;;;;;;4963074;28;20552;-84
2023/09/28 02:13:44;;;;;;;1.50;0.90;;;19.40;98.20;;;;;;4979667;28;20468;-84
2023/09/28 02:16:11;;;;;;;1.47;0.90;;;19.50;98.20;;;;;;4964000;28;20504;-84
2023/09/28 02:18:42;;;;;;;1.47;0.90;;;19.40;98.20;;;;;;4981676;28;20582;-84
2023/09/28 02:21:14;;;;;;;1.50;1.17;;;19.40;98.20;;;;;;4964750;28;20469;-84
2023/09/28 02:23:44;;;;;;;1.50;1.10;;;19.40;98.20;;;;;;4985399;28;20481;-82
2023/09/28 02:26:25;;;;;;;1.50;1.00;;;19.40;98.20;;;;;;4965818;28;20571;-83
2023/09/28 02:31:33;;;;;;;1.50;0.90;;;19.40;98.20;;;;;;4965934;28;20560;-83
2023/09/28 02:33:59;;;;;;;1.40;0.90;;;19.30;98.20;;;;;;4979305;28;20462;-83
2023/09/28 02:39:46;;;;;;;1.50;0.90;;;19.30;98.20;;;;;;4944109;28;20218;-83
2023/09/28 02:42:14;;;;;;;1.50;1.00;;;19.20;98.20;;;;;;4970784;28;20489;-83
2023/09/28 02:44:45;;;;;;;1.50;0.90;;;19.20;98.20;;;;;;4971862;28;20490;-84
2023/09/28 02:47:11;;;;;;;1.47;0.90;;;19.10;98.20;;;;;;4970060;28;20502;-84
2023/09/28 02:49:38;;;;;;;1.43;0.90;;;19.10;98.20;;;;;;4972863;28;20458;-84
2023/09/28 02:52:06;;;;;;;1.47;0.90;;;19.10;98.20;;;;;;4975118;28;20617;-84
2023/09/28 02:54:33;;;;;;;1.50;1.10;;;19.00;98.20;;;;;;4981736;28;20461;-84
2023/09/28 02:57:10;;;;;;;1.47;0.90;;;19.00;98.20;;;;;;4978344;28;20473;-84
2023/09/28 02:59:38;;;;;;;1.50;0.97;;;19.00;98.20;;;;;;4980575;28;20496;-85
2023/09/28 03:02:05;;;;;;;1.50;1.00;;;18.90;98.20;;;;;;4980559;28;20481;-84
2023/09/28 03:04:31;;;;;;;1.50;1.00;;;18.90;98.20;;;;;;4982916;28;21110;-84
2023/09/28 03:06:58;;;;;;;1.50;0.90;;;18.80;98.20;;;;;;4977208;28;20536;-84
2023/09/28 03:09:25;;;;;;;1.50;0.90;;;18.80;98.20;;;;;;4981229;28;20473;-84
2023/09/28 03:11:52;;;;;;;1.50;0.90;;;18.80;98.20;;;;;;4975206;28;20527;-84
2023/09/28 03:14:19;;;;;;;1.47;0.90;;;18.70;98.20;;;;;;4982834;28;20854;-84
2023/09/28 03:16:53;;;;;;;1.47;0.90;;;18.70;98.20;;;;;;4977022;28;20607;-84
2023/09/28 03:19:19;;;;;;;1.50;0.90;;;18.60;98.20;;;;;;4984217;28;20466;-84
2023/09/28 03:21:58;;;;;;;1.40;0.90;;;18.60;98.20;;;;;;4966622;28;20709;-83
2023/09/28 03:24:24;;;;;;;1.43;0.90;;;18.50;98.20;;;;;;4975151;28;20226;-85
2023/09/28 03:26:52;;;;;;;1.50;1.00;;;18.50;98.20;;;;;;4969100;28;20484;-83
2023/09/28 03:29:18;;;;;;;1.50;1.00;;;18.50;98.20;;;;;;4984531;28;20557;-85
2023/09/28 03:31:45;;;;;;;1.50;0.90;;;18.50;98.20;;;;;;4976100;28;20508;-85
2023/09/28 03:34:13;;;;;;;1.47;0.90;;;18.50;98.20;;;;;;4985360;28;20311;-83
2023/09/28 03:37:38;;;;;;;1.43;0.90;;;18.40;98.20;;;;;;4976861;28;20496;-84
2023/09/28 03:40:19;;;;;;;1.47;0.90;;;18.40;98.20;;;;;;4944466;28;21063;-84
2023/09/28 03:42:56;;;;;;;1.50;0.90;;;18.40;98.20;;;;;;4982683;28;20602;-83
2023/09/28 03:45:23;;;;;;;1.60;1.20;;;18.30;98.20;;;;;;4973672;28;20478;-85
2023/09/28 03:47:54;;;;;;;1.50;0.90;;;18.30;98.20;;;;;;4981036;28;20508;-84
2023/09/28 03:50:24;;;;;;;1.47;0.90;;;18.30;98.20;;;;;;4975936;28;20474;-83
2023/09/28 03:52:52;;;;;;;1.50;0.97;;;18.30;98.20;;;;;;4976304;28;20971;-83
2023/09/28 03:55:21;;;;;;;1.50;1.00;;;18.20;98.20;;;;;;4976318;28;20454;-83
2023/09/28 03:57:49;;;;;;;1.50;0.90;;;18.20;98.20;;;;;;4978433;28;21058;-82
2023/09/28 04:00:20;;;;;;;1.40;1.00;;;18.10;98.20;;;;;;4970192;28;20541;-81
2023/09/28 04:02:49;;;;;;;1.50;1.00;;;18.10;98.20;;;;;;4972054;28;20484;-81
2023/09/28 04:05:16;;;;;;;1.50;0.90;;;18.10;98.20;;;;;;4976433;28;20490;-80
2023/09/28 04:07:45;;;;;;;1.50;1.00;;;18.00;98.20;;;;;;4977113;28;20486;-80
2023/09/28 04:10:12;;;;;;;1.70;1.60;;;18.00;98.20;;;;;;4972520;28;20465;-81
2023/09/28 04:12:40;;;;;;;1.43;0.90;;;18.00;98.20;;;;;;4975790;28;20481;-80
2023/09/28 04:15:10;;;;;;;1.50;1.00;;;18.00;98.20;;;;;;4975114;28;20827;-81
2023/09/28 04:17:39;;;;;;;1.50;0.97;;;17.90;98.20;;;;;;4978852;28;20495;-81
2023/09/28 04:20:07;;;;;;;1.50;1.00;;;17.90;98.20;;;;;;4979463;28;20453;-81
2023/09/28 04:22:34;;;;;;;1.50;0.90;;;17.90;98.20;;;;;;4975753;28;20490;-80
2023/09/28 04:25:05;;;;;;;1.50;1.20;;;17.90;98.20;;;;;;4991345;28;20552;-81
2023/09/28 04:27:32;;;;;;;1.43;0.90;;;17.80;98.20;;;;;;4978079;28;20580;-80
2023/09/28 04:29:59;;;;;;;1.50;0.90;;;17.90;98.20;;;;;;4989566;28;20478;-80
2023/09/28 04:32:27;;;;;;;1.50;1.00;;;17.80;98.20;;;;;;4989305;28;20481;-81
2023/09/28 04:34:56;;;;;;;1.50;1.00;;;17.80;98.20;;;;;;4981421;28;20957;-80
2023/09/28 04:37:25;;;;;;;1.40;0.90;;;17.80;98.20;;;;;;4974105;28;20521;-80
2023/09/28 04:39:53;;;;;;;1.50;1.00;;;17.80;98.20;;;;;;4982996;28;20473;-81
2023/09/28 04:42:21;;;;;;;1.50;1.00;;;17.70;98.20;;;;;;4976852;28;20504;-83
2023/09/28 04:44:49;;;;;;;1.50;1.00;;;17.70;98.20;;;;;;4984797;28;20493;-80
2023/09/28 04:47:33;;;;;;;1.50;1.00;;;17.70;98.20;;;;;;4983766;28;20647;-79
2023/09/28 04:50:02;;;;;;;1.50;1.10;;;17.70;98.20;;;;;;4982425;28;21940;-80
2023/09/28 04:55:12;;;;;;;1.47;1.00;;;17.70;98.20;;;;;;4976451;28;20458;-80
2023/09/28 04:57:40;;;;;;;1.50;1.00;;;17.70;98.20;;;;;;4978783;28;20516;-80
2023/09/28 05:00:15;;;;;;;1.50;1.17;;;17.70;98.20;;;;;;4982213;28;20552;-80
2023/09/28 05:02:45;;;;;;;1.50;1.10;;;17.60;98.20;;;;;;4983578;28;20558;-80
2023/09/28 05:05:12;;;;;;;1.47;0.90;;;17.60;98.20;;;;;;4978215;28;20492;-80
2023/09/28 05:07:39;;;;;;;1.50;1.13;;;17.60;98.20;;;;;;4975278;28;20488;-81
2023/09/28 05:10:08;;;;;;;1.50;1.00;;;17.60;98.20;;;;;;4975785;28;20466;-81
2023/09/28 05:12:34;;;;;;;1.50;0.90;;;17.60;98.20;;;;;;5002768;23;20492;-82
2023/09/28 05:15:03;;;;;;;1.50;0.90;;;17.60;98.20;;;;;;4991500;28;20477;-79
2023/09/28 05:17:31;;;;;;;1.47;0.93;;;17.60;98.20;;;;;;4996142;28;20480;-79
2023/09/28 05:19:58;;;;;;;1.43;0.90;;;17.50;98.20;;;;;;4995442;28;20487;-79
2023/09/28 05:22:26;;;;;;;1.47;1.00;;;17.50;98.20;;;;;;4991100;28;20485;-78
2023/09/28 05:24:53;;;;;;;1.50;1.00;;;17.50;98.20;;;;;;4982700;28;20513;-79
2023/09/28 05:27:20;;;;;;;1.50;0.90;;;17.50;98.20;;;;;;4985088;28;20508;-80
2023/09/28 05:29:47;;;;;;;1.47;0.90;;;17.40;98.20;;;;;;4980694;28;20557;-80
2023/09/28 05:32:15;;;;;;;1.50;0.93;;;17.40;98.20;;;;;;4968901;28;20476;-79
2023/09/28 05:34:42;;;;;;;1.47;0.90;;;17.40;98.20;;;;;;4978104;28;20941;-80
2023/09/28 05:37:09;;;;;;;1.50;1.10;;;17.40;98.20;;;;;;4977357;28;20535;-79
2023/09/28 05:39:37;;;;;;;1.47;0.90;;;17.40;98.20;;;;;;4982469;28;20466;-79
2023/09/28 05:42:04;;;;;;;1.50;0.90;;;17.40;98.20;;;;;;4979018;28;20587;-80
2023/09/28 05:44:31;;;;;;;1.43;1.00;;;17.40;98.20;;;;;;4983653;28;20485;-80
2023/09/28 05:46:59;;;;;;;2.20;1.37;;;17.40;98.20;;;;;;4980301;28;20493;-79
2023/09/28 05:49:27;;;;;;;1.50;1.10;;;17.40;98.20;;;;;;4982463;28;20468;-79
2023/09/28 05:51:54;;;;;;;1.50;1.10;;;17.40;98.20;;;;;;4975970;28;20495;-80
2023/09/28 05:54:21;;;;;;;1.50;0.90;;;17.30;98.20;;;;;;4983846;28;20839;-79
2023/09/28 05:56:48;;;;;;;1.47;0.90;;;17.30;98.20;;;;;;4978229;28;20536;-79
2023/09/28 05:59:15;;;;;;;1.43;0.90;;;17.40;98.20;;;;;;4986348;28;20461;-80
2023/09/28 06:01:42;;;;;;;1.47;0.97;;;17.30;98.20;;;;;;4972874;28;20488;-80
2023/09/28 06:04:11;;;;;;;1.50;1.00;;;17.40;98.20;;;;;;4983235;28;20589;-80
2023/09/28 06:06:39;;;;;;;1.50;1.00;;;17.40;98.20;;;;;;4977264;28;20521;-80
2023/09/28 06:09:06;;;;;;;1.50;1.00;;;17.40;98.20;;;;;;4988332;28;20486;-80
2023/09/28 06:11:33;;;;;;;1.60;1.40;;;17.40;98.20;;;;;;4975457;28;20503;-81
2023/09/28 06:13:59;;;;;;;1.50;1.00;;;17.40;98.20;;;;;;4980871;28;20486;-80
2023/09/28 06:16:27;;;;;;;1.50;0.90;;;17.50;98.20;;;;;;4971785;28;20489;-80
2023/09/28 06:18:54;;;;;;;1.50;0.90;;;17.50;98.20;;;;;;4988325;28;20462;-81
2023/09/28 06:21:22;;;;;;;1.43;0.90;;;17.50;98.20;;;;;;4977640;28;20503;-81
2023/09/28 06:23:51;;;;;;;1.50;1.00;;;17.50;98.20;;;;;;4991149;28;20485;-80
2023/09/28 06:26:18;;;;;;;1.43;0.90;;;17.50;98.20;;;;;;4973197;28;20552;-81
2023/09/28 06:28:45;;;;;;;1.50;1.00;;;17.60;98.20;;;;;;4988859;28;20470;-81
2023/09/28 06:31:12;;;;;;;1.50;1.00;;;17.60;98.20;;;;;;4972337;28;20481;-81
2023/09/28 06:33:39;;;;;;;1.50;1.10;;;17.70;98.20;;;;;;4993058;28;20470;-81
2023/09/28 06:36:05;;;;;;;1.50;0.90;;;17.80;98.20;;;;;;4978130;28;20496;-81
2023/09/28 06:38:33;;;;;;;1.50;0.90;;;17.90;98.20;;;;;;4993547;28;20622;-81
2023/09/28 06:41:01;;;;;;;1.47;0.90;;;18.00;98.20;;;;;;4970908;28;20497;-80
2023/09/28 06:43:27;;;;;;;1.50;0.90;;;18.10;98.20;;;;;;4996415;28;20485;-81
2023/09/28 06:45:56;;;;;;;1.50;0.90;;;18.20;98.20;;;;;;4972552;28;21028;-80
2023/09/28 06:48:23;;;;;;;1.50;0.90;;;18.30;98.20;;;;;;4990731;28;20590;-80
2023/09/28 06:50:51;;;;;;;1.50;0.90;;;18.30;98.20;;;;;;4972558;28;20470;-80
2023/09/28 06:53:18;;;;;;;1.50;0.90;;;18.40;98.20;;;;;;4995701;28;20487;-80
2023/09/28 06:55:45;;;;;;;1.50;1.00;;;18.60;98.20;;;;;;4974239;28;20484;-80
2023/09/28 06:58:14;;;;;;;1.50;0.90;;;18.70;98.20;;;;;;4971133;28;20529;-80
2023/09/28 07:00:41;;;;;;;1.50;0.90;;;18.80;98.20;;;;;;4981965;28;20464;-80
2023/09/28 07:03:08;;;;;;;1.50;0.90;;;18.90;98.20;;;;;;4995853;28;20523;-80
2023/09/28 07:05:35;;;;;;;1.50;0.90;;;19.10;98.20;;;;;;4982830;28;21005;-80
2023/09/28 07:08:05;;;;;;;1.47;0.90;;;19.10;98.20;;;;;;4986189;28;20480;-80
2023/09/28 07:10:32;;;;;;;1.50;0.90;;;19.30;98.20;;;;;;4983975;28;20852;-80
2023/09/28 07:13:00;;;;;;;1.50;0.90;;;19.30;98.20;;;;;;4986620;28;20486;-81
2023/09/28 07:15:29;;;;;;;1.50;0.90;;;19.50;98.20;;;;;;4980391;28;20481;-80
2023/09/28 07:17:56;;;;;;;1.50;0.90;;;19.60;98.20;;;;;;4988830;28;20540;-80
2023/09/28 07:20:23;;;;;;;1.47;0.90;;;19.70;98.20;;;;;;4978001;28;20476;-80
2023/09/28 07:22:50;;;;;;;1.50;0.90;;;19.70;98.20;;;;;;4987824;28;20552;-80
2023/09/28 07:25:17;;;;;;;1.50;0.90;;;19.80;98.20;;;;;;4979529;28;20493;-81
2023/09/28 07:27:45;;;;;;;1.50;0.90;;;19.90;98.20;;;;;;4985271;28;20497;-80
2023/09/28 07:30:12;;;;;;;1.50;0.90;;;20.00;98.20;;;;;;4977592;28;20489;-80
2023/09/28 07:32:43;;;;;;;1.50;0.90;;;20.10;98.20;;;;;;4987809;28;20488;-80
2023/09/28 07:35:10;;;;;;;1.50;0.90;;;20.20;98.20;;;;;;4985283;28;20484;-80
2023/09/28 07:37:36;;;;;;;1.50;1.00;;;20.30;98.20;;;;;;4985363;28;20489;-80
2023/09/28 07:40:06;;;;;;;1.50;0.90;;;20.50;98.20;;;;;;4984535;28;20462;-81
2023/09/28 07:42:33;;;;;;;1.50;0.90;;;20.60;98.20;;;;;;4985183;28;20489;-80
2023/09/28 07:44:59;;;;;;;1.50;0.90;;;20.70;98.20;;;;;;4981818;28;20496;-79
2023/09/28 07:47:26;;;;;;;1.50;0.90;;;20.80;98.20;;;;;;4983856;28;20488;-80
2023/09/28 07:49:54;;;;;;;1.50;0.90;;;20.90;98.20;;;;;;4986626;28;20514;-80
2023/09/28 07:52:21;;;;;;;1.50;1.00;;;21.10;98.20;;;;;;4986920;28;20589;-79
2023/09/28 07:54:48;;;;;;;1.50;0.90;;;21.20;98.20;;;;;;4987028;28;20476;-80
2023/09/28 07:57:15;;;;;;;1.43;0.90;;;21.30;98.20;;;;;;4986342;28;20480;-80
2023/09/28 07:59:42;;;;;;;1.50;0.90;;;21.40;98.20;;;;;;4987504;28;20472;-80
2023/09/28 08:02:11;;;;;;;1.47;0.90;;;21.50;98.20;;;;;;4978981;28;20484;-80
2023/09/28 08:04:38;;;;;;;1.50;0.90;;;21.60;98.20;;;;;;4981649;28;20469;-80
2023/09/28 08:07:06;;;;;;;1.47;0.90;;;21.80;98.20;;;;;;4978722;28;20485;-80
2023/09/28 08:09:34;;;;;;;1.50;0.90;;;21.90;98.20;;;;;;4985637;28;20472;-80
2023/09/28 08:12:00;;;;;;;1.50;1.10;;;22.10;98.20;;;;;;4979247;28;20547;-80
2023/09/28 08:14:27;;;;;;;1.47;0.90;;;22.10;98.20;;;;;;4988132;28;20500;-80
2023/09/28 08:16:54;;;;;;;2.60;2.40;;;22.20;98.20;;;;;;4975940;28;20492;-80
2023/09/28 08:19:21;;;;;;;1.43;0.90;;;22.30;98.20;;;;;;4990677;28;20474;-80
2023/09/28 08:21:48;;;;;;;1.50;0.90;;;22.30;98.20;;;;;;4974232;28;20976;-81
2023/09/28 08:24:16;;;;;;;1.47;0.90;;;22.30;98.20;;;;;;4989868;28;20466;-80
2023/09/28 08:26:43;;;;;;;1.50;0.90;;;22.30;98.20;;;;;;4982408;28;20509;-81
2023/09/28 08:29:10;;;;;;;1.50;0.90;;;22.40;98.20;;;;;;4992723;28;20528;-80
2023/09/28 08:31:37;;;;;;;1.50;1.20;;;22.40;98.20;;;;;;4975031;28;21027;-81
2023/09/28 08:34:05;;;;;;;1.50;0.90;;;22.50;98.20;;;;;;4985783;28;20465;-80
2023/09/28 08:36:50;;;;;;;1.50;0.80;;;22.60;98.20;;;;;;4982073;28;20497;-80
2023/09/28 08:39:22;;;;;;;1.50;0.93;;;22.60;98.20;;;;;;4987719;28;20504;-80
2023/09/28 08:41:55;;;;;;;1.50;0.90;;;22.70;98.20;;;;;;4983840;28;20488;-81
2023/09/28 08:44:25;;;;;;;1.50;0.90;;;22.80;98.20;;;;;;4986342;28;20586;-80
2023/09/28 08:47:15;;;;;;;1.50;0.80;;;22.80;98.20;;;;;;4976555;28;20540;-80
2023/09/28 08:50:05;;;;;;;1.50;0.90;;;22.80;98.20;;;;;;4980409;28;20688;-81
2023/09/28 08:52:32;;;;;;;1.50;0.90;;;22.90;98.20;;;;;;4980796;28;20597;-80
2023/09/28 08:55:03;;;;;;;1.47;0.83;;;22.90;98.20;;;;;;4985759;28;20478;-80
2023/09/28 08:57:30;;;;;;;1.47;0.80;;;23.00;98.20;;;;;;4984237;28;20507;-80
2023/09/28 08:59:59;;;;;;;1.50;0.87;;;23.00;98.20;;;;;;4981901;28;20471;-80
2023/09/28 09:02:27;;;;;;;1.47;0.80;;;23.10;98.20;;;;;;4985053;28;20580;-80
2023/09/28 09:04:54;;;;;;;2.40;2.20;;;23.10;98.20;;;;;;4976489;28;20463;-80
2023/09/28 09:07:22;;;;;;;1.47;0.90;;;23.20;98.20;;;;;;4984934;28;20481;-80
2023/09/28 09:09:51;;;;;;;1.50;0.90;;;23.20;98.20;;;;;;4984147;28;20529;-81
2023/09/28 09:12:20;;;;;;;1.47;0.80;;;23.30;98.20;;;;;;4979862;28;20603;-80
2023/09/28 09:14:47;;;;;;;1.43;0.90;;;23.40;98.20;;;;;;4979393;28;20477;-80
2023/09/28 09:17:14;;;;;;;1.47;0.90;;;23.50;98.20;;;;;;4976231;28;20862;-79
2023/09/28 09:19:42;;;;;;;1.47;0.90;;;23.50;98.20;;;;;;4979998;28;20461;-79
2023/09/28 09:22:25;;;;;;;1.50;0.90;;;23.60;98.20;;;;;;4978648;28;20492;-80
2023/09/28 09:24:58;;;;;;;1.43;0.90;;;23.70;98.20;;;;;;4976945;28;20821;-82
2023/09/28 09:27:28;;;;;;;1.47;0.83;;;23.80;98.20;;;;;;4977124;28;20578;-80
2023/09/28 09:30:05;;;;;;;1.43;0.80;;;23.90;98.20;;;;;;4985857;28;20493;-81
2023/09/28 09:32:32;;;;;;;1.47;0.90;;;23.90;98.20;;;;;;4984809;28;20507;-81
2023/09/28 09:35:04;;;;;;;1.47;0.90;;;23.90;98.20;;;;;;4987442;28;20469;-81
2023/09/28 09:37:31;;;;;;;1.47;0.80;;;23.90;98.20;;;;;;4981884;28;20517;-81
2023/09/28 09:40:10;;;;;;;1.50;1.00;;;23.90;98.20;;;;;;4979858;28;20845;-82
2023/09/28 09:42:39;;;;;;;1.50;0.87;;;24.00;98.20;;;;;;4985473;28;20499;-82
2023/09/28 09:45:07;;;;;;;1.43;0.90;;;24.10;98.20;;;;;;4979972;28;20474;-81
2023/09/28 09:47:34;;;;;;;1.50;1.00;;;24.10;98.20;;;;;;4977681;28;20485;-81
2023/09/28 09:50:02;;;;;;;1.47;0.90;;;24.10;98.20;;;;;;4976735;28;20556;-83
2023/09/28 09:52:30;;;;;;;1.43;0.87;;;24.10;98.20;;;;;;4984805;28;20499;-81
2023/09/28 09:54:57;;;;;;;1.50;0.87;;;24.10;98.20;;;;;;4981387;28;20494;-81
2023/09/28 09:57:27;;;;;;;1.47;0.80;;;24.20;98.20;;;;;;4978547;28;20487;-80
2023/09/28 09:59:57;;;;;;;1.60;1.17;;;24.50;98.20;;;;;;4981949;28;20462;-82
2023/09/28 10:02:25;;;;;;;1.50;0.90;;;24.80;97.30;;;;;;4977392;28;20496;-81
2023/09/28 10:04:55;;;;;;;1.50;0.90;;;24.80;96.90;;;;;;4980378;28;20458;-82
2023/09/28 10:07:29;;;;;;;1.47;0.90;;;24.80;96.90;;;;;;4980061;28;20496;-81
2023/09/28 10:09:56;;;;;;;1.47;0.90;;;24.80;96.90;;;;;;4984317;28;20461;-81
2023/09/28 10:12:25;;;;;;;1.47;0.80;;;24.70;97.00;;;;;;4977959;28;20499;-81
2023/09/28 10:14:52;;;;;;;1.47;0.80;;;24.70;97.10;;;;;;4979138;28;20485;-82
2023/09/28 10:17:21;;;;;;;1.43;0.80;;;24.60;96.80;;;;;;4983527;28;21018;-82
2023/09/28 10:19:50;;;;;;;1.50;0.90;;;24.50;97.30;;;;;;4984578;28;20526;-82
2023/09/28 10:22:17;;;;;;;1.50;1.03;;;24.40;97.90;;;;;;4982368;28;20479;-82
2023/09/28 10:24:47;;;;;;;1.47;0.87;;;24.40;98.20;;;;;;4990876;28;20472;-82
2023/09/28 10:27:13;;;;;;;1.47;0.80;;;24.40;98.20;;;;;;4977915;28;20917;-81
2023/09/28 10:29:41;;;;;;;1.47;0.80;;;24.50;98.20;;;;;;4983097;28;20496;-82
2023/09/28 10:32:15;;;;;;;1.43;0.80;;;24.70;97.80;;;;;;4978129;28;20516;-81
2023/09/28 10:34:45;;;;;;;1.47;0.90;;;25.00;98.20;;;;;;4984121;28;20875;-82
2023/09/28 10:37:19;;;;;;;1.50;0.90;;;25.20;95.90;;;;;;4988058;28;21016;-81
2023/09/28 10:39:53;;;;;;;1.50;0.80;;;25.40;95.50;;;;;;4983889;28;20462;-81
2023/09/28 10:42:40;;;;;;;1.47;0.87;;;25.50;95.10;;;;;;4986615;28;20679;-82
2023/09/28 10:45:14;;;;;;;1.47;0.80;;;25.80;94.90;;;;;;4987233;28;20465;-82
2023/09/28 10:47:41;;;;;;;1.47;0.80;;;26.00;93.50;;;;;;4991231;28;20494;-80
2023/09/28 10:50:10;;;;;;;1.47;0.80;;;26.20;93.80;;;;;;4992042;28;20461;-83
2023/09/28 10:52:55;;;;;;;1.47;0.80;;;26.30;93.10;;;;;;4993183;28;20570;-81
2023/09/28 10:55:22;;;;;;;1.50;0.80;;;26.30;92.10;;;;;;4990355;28;20458;-83
2023/09/28 10:58:18;;;;;;;1.50;1.00;;;26.10;93.30;;;;;;4988116;28;20914;-83
2023/09/28 11:00:57;;;;;;;1.50;0.80;;;25.80;93.50;;;;;;4986116;28;20476;-82
2023/09/28 11:03:42;;;;;;;1.47;0.80;;;25.70;94.30;;;;;;4969441;28;20551;-82
2023/09/28 11:06:41;;;;;;;1.47;0.87;;;25.60;94.50;;;;;;4966261;28;20480;-82
2023/09/28 11:09:21;;;;;;;1.50;0.90;;;25.60;94.60;;;;;;4992356;28;20480;-82
2023/09/28 11:11:49;;;;;;;1.50;0.80;;;25.70;94.20;;;;;;4981209;28;20584;-81
2023/09/28 11:14:16;;;;;;;1.50;0.90;;;25.80;94.00;;;;;;4979668;28;20676;-80
2023/09/28 11:16:43;;;;;;;1.43;0.90;;;25.90;93.60;;;;;;4968019;28;20550;-81
2023/09/28 11:19:13;;;;;;;1.43;0.80;;;25.90;94.00;;;;;;4986231;28;20457;-81
2023/09/28 11:21:43;;;;;;;1.43;0.80;;;25.90;93.70;;;;;;4970122;28;20587;-81
2023/09/28 11:24:11;;;;;;;1.47;0.80;;;26.00;94.10;;;;;;4978557;28;20903;-80
2023/09/28 11:26:41;;;;;;;1.47;0.80;;;26.00;93.20;;;;;;4971645;28;20492;-80
2023/09/28 11:29:08;;;;;;;1.50;0.80;;;25.90;94.00;;;;;;4977091;28;20467;-79
2023/09/28 11:31:37;;;;;;;1.50;0.90;;;25.90;92.90;;;;;;4969836;28;21053;-80
2023/09/28 11:34:04;;;;;;;1.43;0.80;;;26.00;92.70;;;;;;4976241;28;20464;-80
2023/09/28 11:36:33;;;;;;;1.50;0.80;;;26.20;92.20;;;;;;4969095;28;20484;-83
2023/09/28 11:39:02;;;;;;;1.47;0.80;;;26.50;92.40;;;;;;4982424;28;20489;-80
2023/09/28 11:41:29;;;;;;;1.50;1.00;;;26.60;91.20;;;;;;4973158;28;21052;-81
2023/09/28 11:44:00;;;;;;;1.47;0.87;;;26.80;91.50;;;;;;4985118;28;20461;-81
2023/09/28 11:46:28;;;;;;;1.50;0.80;;;26.80;91.40;;;;;;4975170;28;20509;-80
2023/09/28 11:49:05;;;;;;;1.47;0.80;;;26.80;91.00;;;;;;4970561;28;20470;-80
2023/09/28 11:51:34;;;;;;;1.50;0.80;;;26.80;91.30;;;;;;4967061;28;21052;-80
2023/09/28 11:54:06;;;;;;;1.47;0.80;;;26.80;90.50;;;;;;4979334;28;20461;-80
2023/09/28 11:56:34;;;;;;;1.50;0.80;;;26.70;92.00;;;;;;4974742;28;20481;-80
2023/09/28 11:59:15;;;;;;;1.40;0.80;;;26.70;92.40;;;;;;4979316;28;20465;-80
2023/09/28 12:01:42;;;;;;;1.47;0.80;;;26.80;91.50;;;;;;4974409;28;20583;-79
2023/09/28 12:04:10;;;;;;;1.50;0.80;;;26.90;91.50;;;;;;4981053;28;21040;-79
2023/09/28 12:06:37;;;;;;;1.47;0.80;;;27.10;90.30;;;;;;4971239;28;20483;-80
2023/09/28 12:09:17;;;;;;;1.50;0.80;;;27.00;90.60;;;;;;4981733;28;21296;-80
2023/09/28 12:11:45;;;;;;;1.50;0.80;;;26.90;91.40;;;;;;4964016;28;20494;-79
2023/09/28 12:14:12;;;;;;;1.47;0.80;;;26.70;90.80;;;;;;4977948;28;20567;-80
2023/09/28 12:16:42;;;;;;;1.47;0.80;;;26.70;92.00;;;;;;4971545;28;20582;-80
2023/09/28 12:19:09;;;;;;;1.47;0.80;;;26.70;91.30;;;;;;4983598;28;20456;-79
2023/09/28 12:21:36;;;;;;;1.47;0.80;;;26.60;91.60;;;;;;4967033;28;20492;-81
2023/09/28 12:24:04;;;;;;;1.40;0.90;;;26.50;91.20;;;;;;4976036;28;20865;-79
2023/09/28 12:26:35;;;;;;;1.43;0.90;;;26.40;92.40;;;;;;4966474;28;20484;-78
2023/09/28 12:29:02;;;;;;;1.43;0.80;;;26.20;92.80;;;;;;4981649;28;20457;-78
2023/09/28 12:31:29;;;;;;;1.40;0.83;;;26.10;93.10;;;;;;4965109;28;20531;-79
2023/09/28 12:33:56;;;;;;;1.47;0.80;;;26.00;93.50;;;;;;4975874;28;20489;-79
2023/09/28 12:36:23;;;;;;;1.50;0.80;;;26.10;94.10;;;;;;4966768;28;20473;-78
2023/09/28 12:38:51;;;;;;;1.50;0.90;;;26.30;93.20;;;;;;4979522;28;20962;-80
2023/09/28 12:41:18;;;;;;;1.50;1.00;;;26.40;93.30;;;;;;4968647;28;20924;-80
2023/09/28 12:43:47;;;;;;;1.50;0.80;;;26.50;93.10;;;;;;4985451;28;20548;-80
2023/09/28 12:46:14;;;;;;;1.43;0.87;;;26.60;92.80;;;;;;4970079;28;20481;-81
2023/09/28 12:48:42;;;;;;;1.50;0.80;;;26.70;92.40;;;;;;4985993;28;20492;-80
2023/09/28 12:51:09;;;;;;;1.47;0.80;;;26.80;92.80;;;;;;4964986;28;20488;-80
2023/09/28 12:53:38;;;;;;;1.50;0.80;;;26.90;92.60;;;;;;4983782;28;20464;-80
2023/09/28 12:56:05;;;;;;;1.50;0.80;;;26.90;91.90;;;;;;4963277;28;20465;-79
2023/09/28 12:58:32;;;;;;;1.40;0.80;;;26.80;91.70;;;;;;4980833;28;20650;-80
2023/09/28 13:01:01;;;;;;;1.50;0.80;;;26.80;92.00;;;;;;4964404;28;20516;-80
2023/09/28 13:03:28;;;;;;;1.40;0.80;;;26.50;91.40;;;;;;4983310;28;20507;-79
2023/09/28 13:05:55;;;;;;;1.47;0.80;;;26.40;92.30;;;;;;4965767;28;20466;-79
2023/09/28 13:08:22;;;;;;;1.40;0.80;;;26.30;92.40;;;;;;4984656;28;21042;-80
2023/09/28 13:10:50;;;;;;;1.40;0.80;;;26.30;92.70;;;;;;4964337;28;20946;-80
2023/09/28 13:13:18;;;;;;;1.50;0.80;;;26.20;93.00;;;;;;4976008;28;20498;-80
2023/09/28 13:15:46;;;;;;;1.50;0.83;;;26.20;93.10;;;;;;4970521;28;20477;-79